Time;durP1;ratioP1;P1;durP2;ratioP2;P2;SDS_P1;SDS_P2;PMS_P1;PMS_P2;Temp;Humidity;BMP_temperature;BMP_pressure;BME280_temperature;BME280_humidity;BME280_pressure;Samples;Min_cycle;Max_cycle;Signal;HPM_P1;HPM_P2
2022/05/30 00:03:44;;;;;;;4.60;0.90;;;;;;;10.78;38.99;100201.47;10445861;28;20259;-80
2022/05/30 00:08:46;;;;;;;8.40;1.40;;;;;;;11.01;38.85;100191.22;10450791;28;20517;-81
2022/05/30 00:13:48;;;;;;;6.30;1.10;;;;;;;10.97;38.62;100195.94;10450101;28;20227;-79
2022/05/30 00:18:51;;;;;;;7.27;0.90;;;;;;;10.61;39.72;100188.44;10450362;28;20239;-79
2022/05/30 00:23:53;;;;;;;4.53;1.00;;;;;;;10.53;39.86;100187.41;10446705;28;20308;-80
2022/05/30 00:28:56;;;;;;;6.47;1.37;;;;;;;10.02;40.27;100186.22;10449859;28;20289;-80
2022/05/30 00:33:58;;;;;;;4.60;1.37;;;;;;;10.75;39.45;100180.34;10449022;28;20231;-87
2022/05/30 00:39:00;;;;;;;8.17;1.67;;;;;;;10.89;39.25;100177.09;10449021;28;20263;-79
2022/05/30 00:44:03;;;;;;;9.77;1.30;;;;;;;10.75;39.32;100171.84;10449273;28;20647;-79
2022/05/30 00:49:10;;;;;;;4.57;1.00;;;;;;;10.22;39.91;100175.94;10450101;28;20587;-79
2022/05/30 00:54:16;;;;;;;6.67;0.87;;;;;;;10.62;39.49;100159.75;10429758;28;20252;-79
2022/05/30 00:59:18;;;;;;;8.43;1.10;;;;;;;10.66;39.30;100166.38;10450135;28;20296;-81
2022/05/30 01:09:44;;;;;;;5.67;1.20;;;;;;;10.58;39.48;100166.50;10450067;28;20196;-79
2022/05/30 01:14:48;;;;;;;5.87;1.07;;;;;;;10.77;39.28;100163.81;10441151;28;20223;-82
2022/05/30 01:20:05;;;;;;;8.30;1.27;;;;;;;10.66;39.54;100157.03;10456126;28;20235;-80
2022/05/30 01:25:16;;;;;;;3.63;0.93;;;;;;;10.75;39.64;100160.53;10415884;28;20297;-80
2022/05/30 01:30:39;;;;;;;6.33;1.27;;;;;;;10.59;39.79;100156.81;10449502;28;20236;-79
2022/05/30 01:35:42;;;;;;;5.13;0.90;;;;;;;10.92;38.95;100157.38;10452466;28;20246;-80
2022/05/30 01:40:48;;;;;;;6.87;1.23;;;;;;;9.54;41.25;100155.94;10454834;28;20563;-80
2022/05/30 01:45:50;;;;;;;4.67;1.30;;;;;;;10.02;40.59;100149.44;10451245;28;20235;-80
2022/05/30 01:50:57;;;;;;;7.73;1.10;;;;;;;10.69;39.56;100148.63;10465829;28;20208;-80
2022/05/30 01:56:02;;;;;;;3.20;1.03;;;;;;;10.48;40.12;100141.53;10475392;28;20246;-80
2022/05/30 02:01:06;;;;;;;3.60;1.37;;;;;;;10.54;39.95;100145.78;10445960;28;20212;-80
2022/05/30 02:06:08;;;;;;;4.90;1.10;;;;;;;10.51;40.03;100135.16;10450610;28;20200;-80
2022/05/30 02:11:11;;;;;;;6.43;0.93;;;;;;;10.36;40.29;100146.06;10468377;28;20253;-80
2022/05/30 02:21:37;;;;;;;4.67;1.10;;;;;;;10.56;40.16;100129.22;10490313;28;20198;-82
2022/05/30 02:26:39;;;;;;;7.67;1.40;;;;;;;10.28;40.48;100135.72;10480961;28;20249;-80
2022/05/30 02:31:44;;;;;;;6.67;1.10;;;;;;;10.73;39.86;100135.41;10465707;28;20196;-79
2022/05/30 02:36:48;;;;;;;7.30;0.90;;;;;;;10.87;39.76;100134.97;10474855;28;20196;-79
2022/05/30 02:41:52;;;;;;;8.10;1.20;;;;;;;10.62;40.29;100133.44;10486487;28;20227;-80
2022/05/30 02:46:59;;;;;;;5.57;1.00;;;;;;;10.52;40.09;100139.63;10479649;28;20662;-80
2022/05/30 02:52:03;;;;;;;7.70;1.43;;;;;;;10.58;39.88;100135.34;10466936;28;20658;-80
2022/05/30 02:57:06;;;;;;;5.77;1.43;;;;;;;10.41;39.66;100132.84;10469553;28;20268;-80
2022/05/30 03:02:10;;;;;;;5.93;1.23;;;;;;;10.73;39.31;100140.22;10465322;28;20620;-80
2022/05/30 03:07:12;;;;;;;8.77;1.07;;;;;;;10.26;40.39;100152.22;10477135;28;20226;-80
2022/05/30 03:12:15;;;;;;;6.77;1.20;;;;;;;9.83;40.84;100149.22;10474182;28;20196;-79
2022/05/30 03:17:17;;;;;;;7.30;1.03;;;;;;;10.26;40.48;100152.22;10439130;28;20196;-80
2022/05/30 03:22:24;;;;;;;3.50;1.20;;;;;;;10.26;40.54;100146.56;10480684;28;20208;-79
2022/05/30 03:27:53;;;;;;;5.80;1.40;;;;;;;10.06;41.15;100156.00;10474940;28;20607;-79
2022/05/30 03:32:55;;;;;;;8.57;1.30;;;;;;;9.89;41.26;100159.13;10474193;28;20608;-78
2022/05/30 03:37:57;;;;;;;10.13;1.67;;;;;;;9.93;41.24;100160.03;10477270;28;20188;-80
2022/05/30 03:43:21;;;;;;;10.17;1.33;;;;;;;9.50;43.34;100164.34;10459104;28;20577;-79
2022/05/30 03:48:23;;;;;;;6.70;1.30;;;;;;;9.89;44.21;100165.63;10458539;28;20703;-80
2022/05/30 03:53:25;;;;;;;6.70;1.27;;;;;;;10.10;43.55;100162.63;10432184;28;20224;-79
2022/05/30 03:58:28;;;;;;;6.67;1.43;;;;;;;10.00;42.89;100168.78;10450908;28;20235;-79
2022/05/30 04:03:30;;;;;;;6.33;1.20;;;;;;;10.05;44.01;100160.03;10431044;28;20259;-80
2022/05/30 04:08:33;;;;;;;5.67;1.20;;;;;;;10.12;43.57;100159.44;10450727;28;20224;-81
2022/05/30 04:14:04;;;;;;;4.67;1.33;;;;;;;9.87;43.12;100161.47;10438540;28;20251;-80
2022/05/30 04:19:09;;;;;;;5.43;1.30;;;;;;;9.63;43.29;100162.31;10449541;28;20227;-83
2022/05/30 04:24:11;;;;;;;7.40;1.40;;;;;;;10.20;41.88;100161.31;10454636;28;20211;-80
2022/05/30 04:29:25;;;;;;;3.90;1.60;;;;;;;9.71;43.00;100172.69;10448476;28;20223;-79
2022/05/30 04:34:46;;;;;;;5.47;1.30;;;;;;;9.98;41.77;100162.63;10449206;28;20235;-80
2022/05/30 04:39:48;;;;;;;7.57;1.20;;;;;;;9.89;42.36;100161.94;10449984;28;20708;-79
2022/05/30 04:45:19;;;;;;;7.17;1.60;;;;;;;10.46;41.78;100160.88;10465756;28;20246;-80
2022/05/30 04:50:45;;;;;;;6.17;1.10;;;;;;;9.77;41.85;100176.13;10430867;28;20234;-80
2022/05/30 04:55:48;;;;;;;6.37;1.07;;;;;;;10.64;40.43;100170.72;10461747;28;20273;-80
2022/05/30 05:01:08;;;;;;;10.37;1.70;;;;;;;9.92;42.35;100186.69;10454513;28;20281;-88
2022/05/30 05:06:18;;;;;;;4.43;1.27;;;;;;;10.33;41.29;100175.06;10447027;28;20215;-80
2022/05/30 05:11:24;;;;;;;6.33;1.50;;;;;;;10.56;41.86;100180.19;10442894;28;20203;-80
2022/05/30 05:16:45;;;;;;;6.67;1.73;;;;;;;9.90;41.78;100189.06;10467637;28;20453;-91
2022/05/30 05:21:47;;;;;;;9.57;1.57;;;;;;;10.48;40.43;100184.00;10470293;28;20238;-81
2022/05/30 05:26:50;;;;;;;5.93;1.20;;;;;;;10.46;41.43;100177.88;10459976;28;20204;-80
2022/05/30 05:31:55;;;;;;;5.23;1.47;;;;;;;10.68;40.15;100177.34;10417623;28;20191;-80
2022/05/30 05:36:57;;;;;;;5.10;1.40;;;;;;;10.55;40.98;100181.41;10455655;28;20245;-80
2022/05/30 05:42:02;;;;;;;6.33;1.40;;;;;;;10.04;41.92;100198.81;10466622;28;20219;-80
2022/05/30 05:47:04;;;;;;;6.57;1.43;;;;;;;9.38;42.95;100203.91;10437007;28;20204;-79
2022/05/30 05:52:07;;;;;;;7.43;1.37;;;;;;;10.10;41.00;100202.22;10455941;28;20196;-90
2022/05/30 05:57:09;;;;;;;11.23;2.17;;;;;;;10.37;40.94;100200.69;10452764;28;20265;-80
2022/05/30 06:02:18;;;;;;;7.97;1.63;;;;;;;9.38;42.88;100215.19;10444850;28;20212;-80
2022/05/30 06:07:21;;;;;;;6.37;1.43;;;;;;;8.82;43.80;100214.78;10437886;28;20486;-80
2022/05/30 06:12:36;;;;;;;9.17;2.27;;;;;;;9.47;42.94;100218.75;10462711;28;20234;-80
2022/05/30 06:17:43;;;;;;;6.90;1.37;;;;;;;11.23;40.65;100201.13;10425178;28;20222;-77
2022/05/30 06:22:45;;;;;;;5.67;1.63;;;;;;;10.77;39.83;100203.47;10464981;28;20216;-81
2022/05/30 06:28:06;;;;;;;6.23;1.77;;;;;;;10.79;39.51;100206.78;10456982;28;20207;-88
2022/05/30 06:33:17;;;;;;;4.63;1.63;;;;;;;9.31;41.88;100229.03;10455766;28;20226;-80
2022/05/30 06:38:28;;;;;;;4.43;1.63;;;;;;;10.53;39.46;100214.91;10454013;28;20204;-79
2022/05/30 06:43:40;;;;;;;7.60;1.90;;;;;;;9.89;40.77;100224.19;10455731;28;20211;-83
2022/05/30 06:49:06;;;;;;;7.97;1.53;;;;;;;10.74;39.20;100229.69;10420537;28;20481;-80
2022/05/30 06:54:15;;;;;;;6.70;1.87;;;;;;;10.10;40.26;100233.34;10464076;28;20551;-80
2022/05/30 06:59:17;;;;;;;5.43;1.40;;;;;;;10.90;39.28;100224.09;10464268;28;20635;-80
2022/05/30 07:04:20;;;;;;;9.80;1.83;;;;;;;10.67;38.36;100233.16;10463199;28;20277;-80
2022/05/30 07:09:41;;;;;;;8.27;1.53;;;;;;;11.27;37.79;100228.41;10462148;28;20199;-91
2022/05/30 07:15:21;;;;;;;5.93;1.10;;;;;;;11.58;36.36;100229.63;10459605;28;20615;-80
2022/05/30 07:20:28;;;;;;;7.77;1.53;;;;;;;11.79;36.95;100228.19;10449462;28;20268;-81
2022/05/30 07:25:48;;;;;;;8.10;1.43;;;;;;;11.66;36.76;100232.28;10462985;28;20215;-83
2022/05/30 07:31:11;;;;;;;7.70;1.47;;;;;;;11.68;35.82;100232.75;10459410;28;20592;-80
2022/05/30 07:36:32;;;;;;;7.40;1.47;;;;;;;10.89;35.71;100228.94;10442780;28;20199;-81
2022/05/30 07:41:50;;;;;;;8.87;0.90;;;;;;;10.30;33.95;100240.91;10441408;28;20278;-82
2022/05/30 07:47:21;;;;;;;9.53;1.97;;;;;;;10.98;34.83;100229.59;10457058;28;20192;-80
2022/05/30 07:52:37;;;;;;;8.10;1.43;;;;;;;11.83;34.46;100228.28;10461788;28;20195;-81
2022/05/30 07:57:52;;;;;;;10.57;1.30;;;;;;;11.54;34.63;100228.72;10446597;28;20481;-80
2022/05/30 08:02:58;;;;;;;5.60;1.00;;;;;;;11.98;34.14;100233.09;10461808;28;20648;-81
2022/05/30 08:08:06;;;;;;;4.00;0.97;;;;;;;11.99;33.53;100231.09;10461466;28;20650;-80
2022/05/30 08:13:17;;;;;;;8.63;1.00;;;;;;;10.72;35.63;100240.56;10445880;28;20485;-80
2022/05/30 08:18:27;;;;;;;7.03;1.67;;;;;;;11.42;35.50;100240.97;10454369;28;20257;-80
2022/05/30 08:23:33;;;;;;;11.13;1.53;;;;;;;12.21;34.38;100238.13;10457448;28;20279;-80
2022/05/30 08:28:37;;;;;;;7.33;1.10;;;;;;;11.59;34.90;100229.25;10425977;28;20246;-80
2022/05/30 08:33:39;;;;;;;6.17;0.70;;;;;;;12.21;33.04;100232.44;10462051;28;20196;-80
2022/05/30 08:41:46;;;;;;;5.17;0.70;;;;;;;12.19;31.54;100235.66;10464546;28;20644;-80
2022/05/30 08:44:16;;;;;;;7.20;0.80;;;;;;;11.64;33.27;100234.66;10446155;28;20220;-80
2022/05/30 08:49:46;;;;;;;3.67;0.70;;;;;;;12.53;31.66;100239.69;10460165;28;20226;-80
2022/05/30 08:55:03;;;;;;;2.20;0.77;;;;;;;12.47;29.85;100244.00;10452704;28;20504;-80
2022/05/30 09:00:37;;;;;;;2.50;0.53;;;;;;;12.33;30.30;100249.34;10436573;28;20211;-79
2022/05/30 09:06:04;;;;;;;1.77;0.60;;;;;;;13.33;28.05;100226.75;10446945;28;20500;-80
2022/05/30 09:11:18;;;;;;;1.83;0.40;;;;;;;12.85;28.44;100240.41;10459287;28;20180;-81
2022/05/30 09:16:29;;;;;;;5.10;0.43;;;;;;;13.67;27.94;100242.81;10442356;28;20237;-80
2022/05/30 09:21:36;;;;;;;2.85;0.47;;;;;;;13.78;27.23;100232.47;10440611;28;20247;-79
2022/05/30 09:26:40;;;;;;;1.53;0.53;;;;;;;12.71;31.13;100240.91;10455823;28;20529;-82
2022/05/30 09:32:11;;;;;;;5.10;0.63;;;;;;;12.03;30.69;100235.66;10458309;28;20199;-80
2022/05/30 09:37:38;;;;;;;7.03;0.80;;;;;;;12.55;31.69;100237.31;10440271;28;20199;-80
2022/05/30 09:43:02;;;;;;;3.73;1.07;;;;;;;13.10;30.64;100240.91;10444391;28;20257;-81
2022/05/30 09:48:13;;;;;;;3.70;0.83;;;;;;;12.90;30.59;100242.91;10457891;28;20245;-80
2022/05/30 09:53:43;;;;;;;6.80;1.07;;;;;;;12.20;31.19;100254.31;10456767;28;20251;-80
2022/05/30 09:59:13;;;;;;;18.80;3.23;;;;;;;13.34;30.03;100245.47;10451143;28;20242;-84
2022/05/30 10:04:35;;;;;;;3.27;0.80;;;;;;;13.23;29.31;100244.44;10437298;28;20678;-81
2022/05/30 10:10:01;;;;;;;3.37;0.60;;;;;;;12.90;28.67;100248.59;10456904;28;20207;-81
2022/05/30 10:15:32;;;;;;;3.30;0.30;;;;;;;13.38;26.29;100240.69;10441476;28;20196;-80
2022/05/30 10:21:05;;;;;;;4.03;0.20;;;;;;;14.01;26.62;100257.25;10457652;28;20196;-80
2022/05/30 10:32:53;;;;;;;8.07;0.85;;;;;;;13.24;27.33;100251.78;10462927;28;20257;-80
2022/05/30 10:38:38;;;;;;;2.87;0.70;;;;;;;12.70;27.39;100261.19;10464744;28;20192;-80
2022/05/30 10:44:09;;;;;;;1.92;0.40;;;;;;;12.99;27.56;100259.78;10461797;28;20284;-80
2022/05/30 10:49:14;;;;;;;3.30;1.00;;;;;;;12.39;29.55;100268.56;10465013;28;20200;-80
2022/05/30 10:54:26;;;;;;;1.20;0.65;;;;;;;13.53;26.67;100263.31;10464573;28;20535;-80
2022/05/30 11:00:11;;;;;;;2.97;1.07;;;;;;;12.02;29.93;100267.25;10447655;28;20192;-80
2022/05/30 11:05:24;;;;;;;3.73;0.70;;;;;;;11.94;29.88;100271.13;10438806;28;20208;-81
2022/05/30 11:10:31;;;;;;;2.07;0.23;;;;;;;11.51;27.08;100272.78;10447426;28;20211;-80
2022/05/30 11:16:08;;;;;;;0.50;0.30;;;;;;;13.00;25.99;100265.09;10461911;28;20196;-80
2022/05/30 11:21:35;;;;;;;4.37;0.67;;;;;;;11.27;30.00;100270.09;10412480;28;20218;-81
2022/05/30 11:26:49;;;;;;;5.33;0.90;;;;;;;12.34;29.13;100266.03;10454770;28;20285;-79
2022/05/30 11:32:00;;;;;;;2.40;0.77;;;;;;;12.72;29.28;100276.66;10462571;28;20670;-80
2022/05/30 11:37:14;;;;;;;4.30;1.13;;;;;;;12.57;28.92;100276.72;10453736;28;20196;-80
2022/05/30 11:42:33;;;;;;;2.73;0.90;;;;;;;13.15;27.90;100272.69;10458803;28;20312;-80
2022/05/30 11:48:00;;;;;;;2.88;0.60;;;;;;;12.92;28.05;100274.63;10466450;28;20211;-80
2022/05/30 11:53:47;;;;;;;3.13;0.93;;;;;;;13.33;27.38;100277.94;10462266;28;20215;-80
2022/05/30 11:59:06;;;;;;;3.00;0.50;;;;;;;13.64;26.89;100271.22;10447942;28;20239;-82
2022/05/30 12:04:41;;;;;;;2.87;1.17;;;;;;;13.08;28.16;100281.09;10448249;28;20222;-82
2022/05/30 12:09:50;;;;;;;2.22;0.50;;;;;;;13.43;27.34;100271.63;10407996;28;20666;-80
2022/05/30 12:15:29;;;;;;;2.33;0.53;;;;;;;13.53;28.73;100279.56;10462570;28;20176;-81
2022/05/30 12:26:57;;;;;;;3.03;0.60;;;;;;;14.09;25.73;100273.25;10457316;28;20219;-80
2022/05/30 12:32:29;;;;;;;1.65;0.50;;;;;;;13.56;26.46;100273.09;10409049;28;20204;-80
2022/05/30 12:37:44;;;;;;;2.93;0.60;;;;;;;14.07;26.81;100284.19;10442073;28;20196;-80
2022/05/30 12:43:15;;;;;;;2.83;0.70;;;;;;;13.68;26.82;100275.75;10458848;28;20227;-80
2022/05/30 12:48:20;;;;;;;6.10;0.60;;;;;;;13.55;26.94;100268.63;10457775;28;20657;-80
2022/05/30 12:53:26;;;;;;;3.13;0.80;;;;;;;14.20;28.64;100277.09;10457280;28;20298;-81
2022/05/30 12:58:28;;;;;;;2.92;0.50;;;;;;;13.72;28.08;100279.50;10449874;28;20194;-81
2022/05/30 13:03:35;;;;;;;4.27;0.80;;;;;;;13.70;28.04;100270.53;10457820;28;20192;-80
2022/05/30 13:09:03;;;;;;;2.33;0.60;;;;;;;13.51;25.98;100273.44;10459061;28;20226;-80
2022/05/30 13:14:36;;;;;;;2.00;0.60;;;;;;;14.30;24.59;100282.16;10452189;28;20187;-80
2022/05/30 13:20:03;;;;;;;1.77;0.40;;;;;;;13.04;26.36;100279.34;10457215;28;20200;-80
2022/05/30 13:25:10;;;;;;;1.98;0.73;;;;;;;13.95;25.28;100276.69;10423813;28;20693;-81
2022/05/30 13:30:25;;;;;;;5.00;0.88;;;;;;;14.46;24.85;100285.66;10455817;28;20626;-80
2022/05/30 13:35:30;;;;;;;1.73;0.40;;;;;;;13.87;26.15;100274.91;10418135;28;20204;-80
2022/05/30 13:40:33;;;;;;;1.83;0.43;;;;;;;12.97;25.82;100282.88;10446960;28;20669;-80
2022/05/30 13:45:41;;;;;;;1.85;0.30;;;;;;;14.85;22.91;100274.84;10441685;28;20215;-80
2022/05/30 13:50:59;;;;;;;2.87;0.40;;;;;;;14.53;24.37;100273.53;10452965;28;20187;-79
2022/05/30 13:56:23;;;;;;;3.83;0.40;;;;;;;14.48;25.37;100277.53;10453907;28;20233;-83
2022/05/30 14:01:36;;;;;;;0.90;0.40;;;;;;;13.46;25.84;100268.88;10482045;28;20508;-80
2022/05/30 14:06:41;;;;;;;1.63;0.50;;;;;;;14.51;24.45;100282.47;10461934;28;20219;-81
2022/05/30 14:11:58;;;;;;;1.13;0.50;;;;;;;13.12;25.44;100281.16;10444883;28;20196;-80
2022/05/30 14:17:26;;;;;;;2.37;0.47;;;;;;;14.52;25.07;100272.72;10463988;28;20204;-80
2022/05/30 14:22:28;;;;;;;1.13;0.77;;;;;;;14.32;26.34;100271.19;10456619;28;20478;-79
2022/05/30 14:27:34;;;;;;;3.10;0.60;;;;;;;14.48;24.81;100280.38;10465516;28;20212;-82
2022/05/30 14:32:37;;;;;;;4.88;0.60;;;;;;;14.79;26.11;100275.56;10453195;28;20692;-80
2022/05/30 14:37:45;;;;;;;3.10;0.60;;;;;;;14.49;26.03;100278.38;10450132;28;20192;-89
2022/05/30 14:42:52;;;;;;;3.20;0.65;;;;;;;13.97;25.99;100279.97;10466045;28;20289;-80
2022/05/30 14:48:01;;;;;;;4.35;0.60;;;;;;;14.71;25.63;100268.13;10467045;28;20219;-80
2022/05/30 14:53:05;;;;;;;1.30;0.57;;;;;;;13.46;25.98;100273.72;10461957;28;20689;-82
2022/05/30 14:58:12;;;;;;;5.67;1.20;;;;;;;14.21;25.46;100284.44;10447225;28;20200;-80
2022/05/30 15:08:36;;;;;;;1.95;0.70;;;;;;;13.32;27.06;100279.16;10496917;28;20225;-80
2022/05/30 15:13:38;;;;;;;1.60;0.70;;;;;;;13.27;26.20;100279.47;10461168;28;20269;-81
2022/05/30 15:18:41;;;;;;;1.70;0.90;;;;;;;13.87;27.57;100278.56;10444068;28;20184;-79
2022/05/30 15:23:43;;;;;;;2.92;0.65;;;;;;;14.39;26.87;100274.16;10447530;28;20657;-80
2022/05/30 15:28:46;;;;;;;3.53;0.90;;;;;;;14.85;24.62;100280.53;10442570;28;20245;-81
2022/05/30 15:33:49;;;;;;;3.40;1.13;;;;;;;14.03;25.32;100277.66;10461019;28;20250;-80
2022/05/30 15:38:51;;;;;;;5.65;0.80;;;;;;;14.20;25.49;100282.78;10454546;28;20196;-83
2022/05/30 15:43:53;;;;;;;4.20;1.73;;;;;;;15.22;24.98;100272.06;10451322;28;20262;-82
2022/05/30 15:48:55;;;;;;;2.08;1.00;;;;;;;15.15;25.44;100277.66;10460102;28;20554;-81
2022/05/30 15:59:22;;;;;;;2.63;1.10;;;;;;;14.68;26.29;100271.75;10421497;28;20188;-82
2022/05/30 16:04:24;;;;;;;1.17;0.87;;;;;;;14.29;24.62;100274.81;10455106;28;20215;-80
2022/05/30 16:09:33;;;;;;;2.90;1.25;;;;;;;14.39;25.52;100271.31;10439946;28;20199;-80
2022/05/30 16:14:36;;;;;;;3.40;1.33;;;;;;;14.39;24.60;100268.47;10459147;28;20196;-80
2022/05/30 16:19:38;;;;;;;1.70;1.02;;;;;;;15.03;25.38;100260.81;10434457;28;20294;-82
2022/05/30 16:24:40;;;;;;;2.77;0.90;;;;;;;14.34;26.45;100260.22;10452440;28;20212;-91
2022/05/30 16:29:43;;;;;;;3.07;1.30;;;;;;;14.80;25.86;100252.38;10463715;28;20192;-92
2022/05/30 16:34:45;;;;;;;2.65;1.30;;;;;;;14.04;25.15;100262.19;10462482;28;20434;-84
2022/05/30 16:39:55;;;;;;;3.95;1.42;;;;;;;14.44;25.83;100256.75;10458461;28;20521;-89
2022/05/30 16:44:57;;;;;;;3.72;1.55;;;;;;;13.93;27.31;100251.44;10459992;28;20212;-86
